Henry Post Army Air Field (Fort Sill)
KFSI : now visible

Airfield :











YOU CAN JOIN US ON...

 
LOGIN :

Register | Disclaimer

   EN    FR    IT 

 









Legend :    VFR   Marginal VFR   IFR   Intensive IFR   Very Intensive IFR
Visi :
Ceiling :
>= 8 km
>= 3000ft
5 to 8 km
1000 to 3000 ft
1500m to 5 km
500 to 1000 ft
800 to 1500m
200 to 500 ft
< 800m
< 200 ft
Symbols :   Thunderstorms  Fog  Heavy snow  Heavy precipitations  Wind > 20 kt






- Airport Elevation : 1189 ft


KFSI - Henry Post Army Air Field (Fort Sill)

CURRENT METAR :
  • 230456Z AUTO 18017G24KT 10SM CLR 24/16 A2980 RMK AO2 SLP081 T02390159 $

EXPIRED METARs :
  • 230356Z AUTO 16013KT 10SM FEW160 24/18 A2982 RMK AO2 SLP089 T02360182 $
  • 230256Z AUTO 16011KT 10SM FEW160 24/18 A2983 RMK AO2 SLP093 T02410178 50013 $

TAF TAF KFSI
Valid from the 22 at 21:00 until the 24 at 03:00 UTC


222100Z 2221/2403 18015G25KT 9999 SKC 510052 QNH2975INS
BECMG 2223/2224 16009KT 9999 FEW100 QNH2978INS
BECMG 2302/2303 16009KT 9999 VCSH FEW020 WS020/19040KT QNH2983INS
BECMG 2307/2308 36020G35KT 6000 -SHRA BKN010 510002 QNH2996INS
TEMPO 2308/2312 4800 TSRA OVC010CB
BECMG 2314/2315 36020G30KT 9999 NSW OVC015 510002 QNH3018INS TX31/2321Z TN08/2316Z LAST NO AMDS AFT 2303 NEXT 2313
KZFW FIR / North America



MET'MAP, your aeronautical weather chart ! - Copyright ORBIFLY December 2007 - Disclaimer

ORBIFLY MET'MAP TEAM :

Programming & Development : Alexandra Zaïnal
Concept & original design : Baudouin d'Aumeries
Assistance for programming : Marc-Olivier Méhu
Technical & hardware support : Manuel Goepfert

Contact : metmap@orbifly.com




SOURCES & CREDITS :

   NOAA       Earth
Advisory